Time;durP1;ratioP1;P1;durP2;ratioP2;P2;SDS_P1;SDS_P2;PMS_P1;PMS_P2;Temp;Humidity;BMP_temperature;BMP_pressure;BME280_temperature;BME280_humidity;BME280_pressure;Samples;Min_cycle;Max_cycle;Signal;HPM_P1;HPM_P2
2021/05/05 00:01:59;;;;;;;4.83;3.60;;;;;;;12.82;100.00;95331.22;5012873;28;20747;-86
2021/05/05 00:04:26;;;;;;;4.07;3.67;;;;;;;12.96;100.00;95318.09;5013099;28;20203;-88
2021/05/05 00:06:57;;;;;;;3.50;3.20;;;;;;;13.00;100.00;95340.41;5013337;28;20199;-87
2021/05/05 00:09:25;;;;;;;6.30;4.63;;;;;;;13.08;100.00;95377.19;5013197;28;20250;-87
2021/05/05 00:11:53;;;;;;;3.10;2.90;;;;;;;12.84;100.00;95374.00;5013318;28;20219;-87
2021/05/05 00:14:21;;;;;;;3.17;2.80;;;;;;;13.06;100.00;95352.84;5012993;28;20203;-87
2021/05/05 00:16:48;;;;;;;3.10;2.80;;;;;;;12.92;100.00;95357.22;5012513;28;20202;-87
2021/05/05 00:19:15;;;;;;;3.63;2.83;;;;;;;12.64;100.00;95382.81;5013438;28;20207;-87
2021/05/05 00:21:43;;;;;;;5.47;3.00;;;;;;;12.33;100.00;95315.50;5013013;28;20238;-87
2021/05/05 00:24:11;;;;;;;5.10;3.10;;;;;;;12.48;100.00;95297.75;5013079;28;20199;-87
2021/05/05 00:26:39;;;;;;;5.93;2.97;;;;;;;12.52;100.00;95291.09;5012676;28;20206;-86
2021/05/05 00:29:07;;;;;;;3.70;2.90;;;;;;;12.55;100.00;95306.53;5012719;28;20666;-86
2021/05/05 00:31:35;;;;;;;3.70;2.27;;;;;;;12.48;100.00;95295.13;5012990;28;20227;-85
2021/05/05 00:34:02;;;;;;;2.73;2.53;;;;;;;12.75;100.00;95295.28;5012912;28;20664;-86
2021/05/05 00:36:29;;;;;;;2.80;2.50;;;;;;;12.72;100.00;95280.66;5012336;28;20243;-86
2021/05/05 00:38:59;;;;;;;6.70;6.10;;;;;;;12.71;100.00;95278.19;5012945;28;20261;-86
2021/05/05 00:41:26;;;;;;;3.50;3.20;;;;;;;12.26;100.00;95251.41;5012403;28;20336;-86
2021/05/05 00:43:54;;;;;;;12.80;10.37;;;;;;;12.33;100.00;95204.81;5012487;28;20693;-85
2021/05/05 00:46:21;;;;;;;5.60;5.10;;;;;;;12.42;100.00;95150.16;5012478;28;20691;-85
2021/05/05 00:48:48;;;;;;;3.90;3.50;;;;;;;12.47;100.00;95148.56;5012802;28;20210;-87
2021/05/05 00:51:15;;;;;;;3.90;3.60;;;;;;;12.45;100.00;95168.22;5012338;28;20257;-86
2021/05/05 00:53:42;;;;;;;4.00;3.63;;;;;;;12.50;100.00;95166.59;5012684;28;20639;-86
2021/05/05 00:56:10;;;;;;;4.73;3.23;;;;;;;12.37;100.00;95185.00;5012322;28;20206;-86
2021/05/05 00:58:37;;;;;;;9.03;8.13;;;;;;;12.35;100.00;95147.50;5011994;28;20196;-85
2021/05/05 01:01:05;;;;;;;5.53;5.03;;;;;;;12.50;100.00;95142.06;5012141;28;20210;-86
2021/05/05 01:03:33;;;;;;;5.27;4.50;;;;;;;12.45;100.00;95169.03;5012568;28;20299;-86
2021/05/05 01:06:01;;;;;;;4.73;3.17;;;;;;;12.26;100.00;95175.84;5012088;28;20235;-86
2021/05/05 01:08:28;;;;;;;15.43;14.13;;;;;;;12.28;100.00;95121.13;5012227;28;20202;-86
2021/05/05 01:10:55;;;;;;;6.57;4.43;;;;;;;12.18;100.00;95144.38;5012121;28;20302;-86
2021/05/05 01:13:22;;;;;;;6.13;4.13;;;;;;;12.04;100.00;95124.25;5012421;28;20262;-86
2021/05/05 01:15:49;;;;;;;3.67;2.90;;;;;;;12.02;100.00;95074.44;5012058;28;20298;-85
2021/05/05 01:18:17;;;;;;;4.43;3.93;;;;;;;11.81;100.00;95062.16;5012316;28;20696;-86
2021/05/05 01:20:44;;;;;;;2.77;2.57;;;;;;;11.74;100.00;95013.09;5011775;28;20199;-85
2021/05/05 01:23:11;;;;;;;4.40;3.27;;;;;;;11.82;100.00;94990.06;5012053;28;20200;-86
2021/05/05 01:25:38;;;;;;;4.00;3.47;;;;;;;11.86;100.00;94977.34;5012136;28;20664;-86
2021/05/05 01:28:05;;;;;;;3.87;2.83;;;;;;;11.84;100.00;94979.34;5014734;28;20243;-86
2021/05/05 01:30:32;;;;;;;3.07;2.87;;;;;;;11.92;100.00;94971.28;5015884;28;20391;-85
2021/05/05 01:32:59;;;;;;;5.63;5.13;;;;;;;11.86;100.00;94937.84;5016124;28;20333;-86
2021/05/05 01:35:26;;;;;;;6.67;4.90;;;;;;;11.98;100.00;94919.63;5015874;28;20234;-86
2021/05/05 01:37:53;;;;;;;8.03;5.53;;;;;;;12.11;100.00;94923.09;5015653;28;20231;-86
2021/05/05 01:40:25;;;;;;;3.60;3.40;;;;;;;12.00;100.00;94971.09;5015956;28;20195;-86
2021/05/05 01:42:52;;;;;;;4.77;3.10;;;;;;;12.02;100.00;94977.00;5016043;28;20243;-86
2021/05/05 01:45:19;;;;;;;6.57;3.40;;;;;;;11.72;100.00;94930.91;5015738;28;20231;-86
2021/05/05 01:47:46;;;;;;;6.17;4.77;;;;;;;11.57;100.00;94905.56;5015354;28;20201;-86
2021/05/05 01:50:14;;;;;;;8.13;6.03;;;;;;;11.81;100.00;94919.16;5015705;28;20295;-86
2021/05/05 01:52:41;;;;;;;13.67;8.37;;;;;;;11.88;100.00;94899.78;5015622;28;20243;-86
2021/05/05 01:55:10;;;;;;;20.00;9.23;;;;;;;12.13;100.00;94917.66;5015533;28;20197;-86
2021/05/05 01:57:41;;;;;;;4.13;3.73;;;;;;;12.12;100.00;94951.09;5015481;28;20293;-86
2021/05/05 02:00:13;;;;;;;5.33;3.37;;;;;;;11.97;100.00;94968.06;5015571;28;20231;-86
2021/05/05 02:02:40;;;;;;;4.47;3.13;;;;;;;12.05;100.00;94979.22;5015602;28;20247;-86
2021/05/05 02:05:08;;;;;;;3.37;3.07;;;;;;;11.72;100.00;94958.03;5015756;28;20210;-86
2021/05/05 02:07:36;;;;;;;3.70;2.70;;;;;;;11.69;100.00;94934.75;5015231;28;20691;-86
2021/05/05 02:10:04;;;;;;;5.50;3.67;;;;;;;11.67;100.00;94926.22;5014896;28;20683;-85
2021/05/05 02:12:31;;;;;;;2.93;2.73;;;;;;;11.34;100.00;94913.75;5014870;28;20316;-86
2021/05/05 02:15:03;;;;;;;2.47;2.27;;;;;;;10.96;100.00;94826.63;5015118;28;20290;-86
2021/05/05 02:17:29;;;;;;;2.67;2.43;;;;;;;11.26;100.00;94760.59;5014818;28;20341;-86
2021/05/05 02:19:57;;;;;;;3.07;2.77;;;;;;;11.36;100.00;94732.06;5015359;28;20203;-86
2021/05/05 02:22:24;;;;;;;4.27;2.90;;;;;;;11.55;100.00;94752.31;5015245;28;20219;-85
2021/05/05 02:24:50;;;;;;;2.80;2.50;;;;;;;11.59;100.00;94764.06;5015539;28;20279;-86
2021/05/05 02:27:17;;;;;;;5.83;3.10;;;;;;;11.76;100.00;94792.63;5015106;28;20231;-86
2021/05/05 02:29:44;;;;;;;2.90;2.70;;;;;;;11.73;100.00;94851.72;5014718;28;20243;-86
2021/05/05 02:32:15;;;;;;;4.20;3.80;;;;;;;11.61;100.00;94850.72;5014522;28;20313;-86
2021/05/05 02:34:42;;;;;;;3.87;3.13;;;;;;;11.73;100.00;94837.78;5015158;28;20244;-85
2021/05/05 02:37:10;;;;;;;4.23;3.50;;;;;;;11.76;100.00;94850.53;5014184;28;20442;-85
2021/05/05 02:39:37;;;;;;;3.43;2.90;;;;;;;11.77;100.00;94854.78;5014295;28;20627;-86
2021/05/05 02:42:04;;;;;;;2.73;2.53;;;;;;;11.62;100.00;94847.88;5014301;28;20673;-86
2021/05/05 02:44:31;;;;;;;4.93;2.63;;;;;;;11.60;100.00;94826.22;5014591;28;20337;-86
2021/05/05 02:46:59;;;;;;;3.03;2.83;;;;;;;11.68;100.00;94819.97;5014170;28;20714;-85
2021/05/05 02:49:26;;;;;;;4.57;4.20;;;;;;;11.51;100.00;94819.53;5014454;28;20199;-86
2021/05/05 02:51:53;;;;;;;3.67;3.37;;;;;;;11.53;100.00;94811.41;5014367;28;20326;-85
2021/05/05 02:54:20;;;;;;;7.87;4.80;;;;;;;11.31;100.00;94780.00;5014444;28;20668;-86
2021/05/05 02:56:47;;;;;;;12.03;5.97;;;;;;;11.27;100.00;94749.06;5014238;28;20199;-86
2021/05/05 02:59:14;;;;;;;4.83;3.97;;;;;;;11.35;100.00;94704.16;5014280;28;20199;-86
2021/05/05 03:01:41;;;;;;;5.47;4.30;;;;;;;11.33;100.00;94724.59;5014048;28;20239;-86
2021/05/05 03:04:08;;;;;;;4.60;3.57;;;;;;;11.29;100.00;94733.88;5014206;28;20286;-86
2021/05/05 03:06:35;;;;;;;4.57;3.93;;;;;;;11.21;100.00;94729.63;5013859;28;20282;-85
2021/05/05 03:09:04;;;;;;;4.63;4.00;;;;;;;11.26;100.00;94726.41;5014168;28;20196;-86
2021/05/05 03:11:32;;;;;;;5.80;3.90;;;;;;;11.15;100.00;94735.66;5014068;28;20638;-86
2021/05/05 03:13:59;;;;;;;5.73;3.80;;;;;;;11.13;100.00;94714.84;5014202;28;20191;-85
2021/05/05 03:16:26;;;;;;;5.73;3.60;;;;;;;10.99;100.00;94662.44;5014042;28;20210;-86
2021/05/05 03:18:54;;;;;;;3.60;3.30;;;;;;;11.12;100.00;94636.97;5014108;28;20286;-86
2021/05/05 03:21:21;;;;;;;3.40;3.07;;;;;;;11.12;100.00;94629.09;5013733;28;20550;-85
2021/05/05 03:23:49;;;;;;;3.37;3.07;;;;;;;11.13;100.00;94614.94;5013835;28;20287;-86
2021/05/05 03:26:16;;;;;;;4.60;3.80;;;;;;;11.23;100.00;94632.13;5013413;28;20769;-85
2021/05/05 03:28:43;;;;;;;3.37;3.07;;;;;;;11.29;100.00;94632.13;5013661;28;20209;-85
2021/05/05 03:31:10;;;;;;;4.43;3.90;;;;;;;11.35;100.00;94641.00;5013493;28;20209;-85
2021/05/05 03:33:37;;;;;;;2.93;2.73;;;;;;;11.29;100.00;94641.81;5013507;28;20219;-85
2021/05/05 03:36:04;;;;;;;3.30;2.97;;;;;;;11.33;100.00;94629.91;5013295;28;20278;-86
2021/05/05 03:38:31;;;;;;;3.33;2.70;;;;;;;11.44;100.00;94610.88;5014031;28;20706;-86
2021/05/05 03:41:00;;;;;;;3.53;3.30;;;;;;;11.37;100.00;94626.66;5010845;28;20207;-86
2021/05/05 03:43:27;;;;;;;4.00;3.33;;;;;;;11.36;100.00;94632.09;5014149;28;20203;-89
2021/05/05 03:45:54;;;;;;;4.47;4.07;;;;;;;11.38;100.00;94619.56;5013673;28;20199;-86
2021/05/05 03:48:22;;;;;;;3.30;3.00;;;;;;;11.23;100.00;94626.88;5013469;28;20206;-86
2021/05/05 03:50:49;;;;;;;3.90;3.27;;;;;;;11.31;100.00;94613.50;5012279;28;20217;-86
2021/05/05 03:53:17;;;;;;;3.57;3.03;;;;;;;11.24;100.00;94645.06;5013628;28;20289;-86
2021/05/05 03:55:44;;;;;;;3.43;3.13;;;;;;;10.97;100.00;94593.47;5013211;28;20767;-86
2021/05/05 03:58:12;;;;;;;6.53;4.10;;;;;;;11.28;100.00;94548.97;5013216;28;20737;-86
2021/05/05 04:00:39;;;;;;;11.73;4.13;;;;;;;11.28;100.00;94611.28;5013277;28;20207;-86
2021/05/05 04:03:06;;;;;;;8.83;4.03;;;;;;;11.13;100.00;94614.13;5013139;28;20793;-86
2021/05/05 04:05:33;;;;;;;6.07;5.57;;;;;;;11.23;100.00;94559.31;5012974;28;20203;-86
2021/05/05 04:08:01;;;;;;;4.20;3.80;;;;;;;11.18;100.00;94530.16;5013314;28;20207;-86
2021/05/05 04:10:28;;;;;;;4.23;3.83;;;;;;;11.08;100.00;94535.84;5013061;28;20207;-86
2021/05/05 04:12:54;;;;;;;3.97;3.57;;;;;;;11.27;100.00;94526.31;5013207;28;20311;-86
2021/05/05 04:15:22;;;;;;;6.13;3.93;;;;;;;11.32;100.00;94570.41;5012717;28;20290;-86
2021/05/05 04:17:49;;;;;;;20.60;9.47;;;;;;;11.39;100.00;94537.81;5012908;28;20234;-86
2021/05/05 04:20:19;;;;;;;21.10;16.63;;;;;;;11.54;100.00;94521.00;5012913;28;20294;-86
2021/05/05 04:22:46;;;;;;;12.47;9.57;;;;;;;11.41;100.00;94570.00;5012875;28;20198;-86
2021/05/05 04:25:13;;;;;;;8.97;7.40;;;;;;;11.50;100.00;94554.81;5012661;28;20286;-86
2021/05/05 04:27:42;;;;;;;8.23;5.20;;;;;;;11.53;100.00;94527.25;5012919;28;20620;-86
2021/05/05 04:30:13;;;;;;;11.50;5.60;;;;;;;11.53;100.00;94512.28;5012761;28;20282;-86
2021/05/05 04:32:42;;;;;;;6.63;4.73;;;;;;;11.60;100.00;94471.00;5012531;28;20303;-86
2021/05/05 04:35:09;;;;;;;7.47;5.10;;;;;;;11.49;100.00;94447.94;5012959;28;20229;-86
2021/05/05 04:37:37;;;;;;;7.50;5.90;;;;;;;11.68;100.00;94435.72;5012087;28;20646;-86
2021/05/05 04:40:06;;;;;;;6.50;5.20;;;;;;;11.76;100.00;94484.69;5012663;28;20238;-86
2021/05/05 04:42:33;;;;;;;6.67;5.63;;;;;;;11.78;100.00;94487.91;5012577;28;20238;-86
2021/05/05 04:45:01;;;;;;;6.70;4.90;;;;;;;11.89;100.00;94471.50;5012896;28;20647;-87
2021/05/05 04:47:28;;;;;;;11.73;10.47;;;;;;;12.00;100.00;94491.09;5012238;28;20200;-86
2021/05/05 04:49:55;;;;;;;5.57;4.40;;;;;;;11.98;100.00;94490.47;5012500;28;20290;-87
2021/05/05 04:52:22;;;;;;;4.17;3.80;;;;;;;12.05;100.00;94501.78;5012363;28;20309;-86
2021/05/05 04:54:49;;;;;;;4.77;3.30;;;;;;;11.84;100.00;94508.94;5012380;28;20294;-86
2021/05/05 04:57:16;;;;;;;5.90;4.50;;;;;;;11.76;100.00;94450.47;5012393;28;20262;-86
2021/05/05 04:59:43;;;;;;;7.10;3.90;;;;;;;11.87;100.00;94461.16;5012670;28;20203;-86
2021/05/05 05:02:10;;;;;;;8.13;3.60;;;;;;;12.11;100.00;94480.66;5012285;28;20202;-86
2021/05/05 05:04:38;;;;;;;4.77;4.07;;;;;;;11.86;100.00;94495.59;5012250;28;20702;-86
2021/05/05 05:07:06;;;;;;;4.53;3.47;;;;;;;12.01;100.00;94456.63;5012419;28;20200;-87
2021/05/05 05:09:33;;;;;;;6.20;4.50;;;;;;;11.74;100.00;94481.44;5012633;28;20196;-86
2021/05/05 05:12:00;;;;;;;5.20;4.03;;;;;;;11.68;100.00;94450.72;5012376;28;20662;-86
2021/05/05 05:14:28;;;;;;;6.87;4.23;;;;;;;11.89;100.00;94409.13;5012252;28;20206;-86
2021/05/05 05:16:56;;;;;;;9.63;5.00;;;;;;;12.02;100.00;94373.19;5012571;28;20626;-87
2021/05/05 05:19:23;;;;;;;5.10;4.60;;;;;;;11.93;100.00;94366.56;5012268;28;20198;-86
2021/05/05 05:21:50;;;;;;;5.67;4.73;;;;;;;11.81;100.00;94340.91;5012085;28;20706;-87
2021/05/05 05:24:18;;;;;;;5.67;4.80;;;;;;;11.82;100.00;94300.41;5012245;28;20270;-86
2021/05/05 05:26:45;;;;;;;6.23;4.43;;;;;;;11.62;100.00;94295.28;5012181;28;20199;-87
2021/05/05 05:29:12;;;;;;;4.77;4.13;;;;;;;12.07;100.00;94308.34;5012172;28;20202;-86
2021/05/05 05:31:39;;;;;;;7.37;4.20;;;;;;;12.07;100.00;94382.06;5012158;28;20278;-87
2021/05/05 05:34:06;;;;;;;4.90;3.93;;;;;;;12.14;100.00;94417.06;5011847;28;20210;-86
2021/05/05 05:36:32;;;;;;;5.77;3.73;;;;;;;12.23;100.00;94367.56;5012058;28;20647;-86
2021/05/05 05:38:59;;;;;;;4.73;3.90;;;;;;;11.93;100.00;94303.41;5011965;28;20198;-86
2021/05/05 05:41:28;;;;;;;4.60;3.90;;;;;;;11.91;100.00;94222.00;5012205;28;20230;-86
2021/05/05 05:43:55;;;;;;;3.30;3.00;;;;;;;12.12;100.00;94211.06;5012129;28;20200;-86
2021/05/05 05:46:21;;;;;;;7.63;3.43;;;;;;;12.23;100.00;94261.41;5011915;28;20290;-87
2021/05/05 05:48:48;;;;;;;5.47;3.30;;;;;;;12.17;100.00;94280.72;5012151;28;20199;-87
2021/05/05 05:51:15;;;;;;;4.17;3.60;;;;;;;11.94;100.00;94276.03;5012214;28;20731;-86
2021/05/05 05:53:42;;;;;;;4.83;2.97;;;;;;;12.09;100.00;94234.41;5011703;28;20265;-86
2021/05/05 05:56:09;;;;;;;4.43;4.13;;;;;;;12.03;100.00;94232.63;5012395;28;20583;-86
2021/05/05 05:58:37;;;;;;;5.13;3.30;;;;;;;12.29;100.00;94181.50;5012165;28;20205;-86
2021/05/05 06:01:04;;;;;;;3.60;3.23;;;;;;;12.46;100.00;94187.78;5012062;28;20230;-86
2021/05/05 06:03:31;;;;;;;6.77;3.50;;;;;;;12.59;100.00;94273.78;5011651;28;20697;-87
2021/05/05 06:05:58;;;;;;;7.13;3.87;;;;;;;12.88;100.00;94382.16;5012064;28;20576;-86
2021/05/05 06:08:25;;;;;;;5.03;3.23;;;;;;;13.13;100.00;94479.69;5011704;28;20207;-86
2021/05/05 06:10:51;;;;;;;3.73;2.73;;;;;;;13.22;100.00;94623.47;5011735;28;20334;-86
2021/05/05 06:13:18;;;;;;;3.00;2.80;;;;;;;13.21;100.00;94782.81;5011730;28;20227;-85
2021/05/05 06:15:46;;;;;;;8.30;2.77;;;;;;;13.24;100.00;94893.22;5015153;28;20290;-86
2021/05/05 06:18:13;;;;;;;3.70;2.90;;;;;;;13.35;100.00;94947.97;5015225;28;20286;-87
2021/05/05 06:20:40;;;;;;;9.90;3.90;;;;;;;13.38;100.00;94992.44;5015115;28;20239;-86
2021/05/05 06:23:07;;;;;;;3.50;2.40;;;;;;;13.66;100.00;95002.69;5014914;28;20664;-87
2021/05/05 06:25:34;;;;;;;3.27;2.40;;;;;;;13.82;100.00;95085.94;5015056;28;20678;-86
2021/05/05 06:28:01;;;;;;;2.73;2.00;;;;;;;13.73;100.00;95163.75;5014886;28;20249;-86
2021/05/05 06:30:28;;;;;;;2.20;2.00;;;;;;;13.97;100.00;95194.00;5014826;28;20209;-86
2021/05/05 06:32:56;;;;;;;4.50;2.03;;;;;;;14.08;100.00;95306.97;5014749;28;20273;-87
2021/05/05 06:35:22;;;;;;;2.30;1.90;;;;;;;14.50;100.00;95352.50;5014806;28;20696;-86
2021/05/05 06:37:49;;;;;;;3.83;2.43;;;;;;;14.64;100.00;95504.84;5014484;28;20450;-86
2021/05/05 06:40:16;;;;;;;5.03;2.00;;;;;;;14.73;100.00;95583.00;5014577;28;20203;-86
2021/05/05 06:42:43;;;;;;;5.83;1.80;;;;;;;14.57;100.00;95657.41;5014635;28;20202;-86
2021/05/05 06:45:11;;;;;;;8.07;4.77;;;;;;;14.75;100.00;95654.22;5014723;28;20199;-87
2021/05/05 06:47:38;;;;;;;2.37;1.57;;;;;;;14.66;100.00;95693.28;5014420;28;20197;-86
2021/05/05 06:50:08;;;;;;;4.70;1.50;;;;;;;14.61;100.00;95716.03;5014951;28;20283;-87
2021/05/05 06:52:35;;;;;;;1.87;1.50;;;;;;;14.57;100.00;95722.72;5014478;28;20223;-87
2021/05/05 06:55:02;;;;;;;3.17;1.70;;;;;;;14.87;100.00;95721.41;5014521;28;20195;-87
2021/05/05 06:57:29;;;;;;;4.73;1.83;;;;;;;14.96;100.00;95741.41;5014371;28;20246;-87
2021/05/05 06:59:56;;;;;;;4.57;1.80;;;;;;;15.19;100.00;95764.06;5014965;28;20192;-86
2021/05/05 07:02:23;;;;;;;1.90;1.80;;;;;;;15.16;100.00;95764.47;5014271;28;20200;-87
2021/05/05 07:04:50;;;;;;;3.43;2.43;;;;;;;15.75;100.00;95787.63;5014251;28;20299;-87
2021/05/05 07:07:18;;;;;;;2.20;1.93;;;;;;;15.88;100.00;95806.19;5014366;28;20207;-86
2021/05/05 07:09:44;;;;;;;1.67;1.40;;;;;;;15.81;100.00;95794.75;5014619;28;20212;-87
2021/05/05 07:12:11;;;;;;;5.90;1.90;;;;;;;16.17;100.00;95793.53;5014199;28;20223;-87
2021/05/05 07:14:38;;;;;;;2.30;1.93;;;;;;;16.81;100.00;95832.66;5014406;28;20235;-87
2021/05/05 07:17:05;;;;;;;4.13;1.80;;;;;;;17.23;100.00;95841.09;5014126;28;20201;-87
2021/05/05 07:19:32;;;;;;;4.27;1.57;;;;;;;17.82;100.00;95847.97;5014101;28;20674;-87
2021/05/05 07:21:59;;;;;;;2.37;1.50;;;;;;;17.83;100.00;95854.09;5013996;28;20205;-87
2021/05/05 07:24:27;;;;;;;1.77;1.67;;;;;;;17.78;100.00;95868.03;5013795;28;20202;-87
2021/05/05 07:26:53;;;;;;;4.63;2.27;;;;;;;17.71;100.00;95816.75;5014155;28;20195;-87
2021/05/05 07:29:20;;;;;;;4.07;3.30;;;;;;;18.20;100.00;95820.50;5013835;28;20253;-86
2021/05/05 07:31:47;;;;;;;5.30;2.80;;;;;;;18.08;100.00;95848.00;5013913;28;20197;-87
2021/05/05 07:34:15;;;;;;;4.50;1.80;;;;;;;17.77;100.00;95878.91;5013763;28;20234;-87
2021/05/05 07:36:44;;;;;;;2.50;1.60;;;;;;;17.40;100.00;95869.84;5013631;28;20233;-87
2021/05/05 07:39:23;;;;;;;1.83;1.50;;;;;;;17.31;100.00;95851.47;5013693;28;20206;-87
2021/05/05 07:47:27;;;;;;;8.60;7.70;;;;;;;18.63;100.00;95834.84;5013536;28;20316;-87
2021/05/05 07:49:55;;;;;;;3.40;2.40;;;;;;;19.24;100.00;95864.16;5013383;28;20238;-86
2021/05/05 07:52:22;;;;;;;2.50;1.70;;;;;;;18.99;100.00;95882.06;5013305;28;20256;-86
2021/05/05 07:54:50;;;;;;;2.70;1.80;;;;;;;19.47;100.00;95884.81;5013440;28;20206;-87
2021/05/05 07:57:19;;;;;;;2.53;1.40;;;;;;;19.73;100.00;95887.38;5013382;28;20281;-87
2021/05/05 07:59:46;;;;;;;4.17;2.00;;;;;;;20.09;100.00;95894.47;5013372;28;20287;-87
2021/05/05 08:02:14;;;;;;;2.37;2.00;;;;;;;20.60;100.00;95893.91;5013256;28;20684;-87
2021/05/05 08:04:48;;;;;;;6.50;3.13;;;;;;;20.56;100.00;95879.41;5013475;28;20676;-86
2021/05/05 08:07:16;;;;;;;4.47;2.97;;;;;;;19.53;100.00;95909.72;5013264;28;20194;-86
2021/05/05 08:09:43;;;;;;;1.87;1.67;;;;;;;18.68;100.00;95889.06;5013476;28;20282;-87
2021/05/05 08:12:11;;;;;;;2.37;1.90;;;;;;;18.25;100.00;95857.94;5012718;28;20245;-87
2021/05/05 08:14:39;;;;;;;2.43;2.13;;;;;;;17.98;100.00;95838.69;5013028;28;20290;-87
2021/05/05 08:17:06;;;;;;;4.37;2.67;;;;;;;17.92;100.00;95804.16;5012994;28;20245;-87
2021/05/05 08:19:33;;;;;;;3.20;2.30;;;;;;;17.66;100.00;95819.22;5012950;28;20203;-86
2021/05/05 08:22:00;;;;;;;2.90;2.03;;;;;;;17.51;100.00;95802.75;5012958;28;20207;-86
2021/05/05 08:24:27;;;;;;;6.97;3.13;;;;;;;17.22;100.00;95812.91;5012927;28;20710;-87
2021/05/05 08:26:55;;;;;;;3.17;2.57;;;;;;;17.08;100.00;95793.56;5012882;28;20229;-87
2021/05/05 08:29:22;;;;;;;3.43;2.40;;;;;;;17.06;100.00;95770.91;5012771;28;20258;-86
2021/05/05 08:31:50;;;;;;;4.40;2.43;;;;;;;16.99;100.00;95760.31;5012479;28;20201;-87
2021/05/05 08:34:16;;;;;;;3.37;2.27;;;;;;;16.84;100.00;95752.63;5012661;28;20317;-87
2021/05/05 08:36:43;;;;;;;7.13;2.73;;;;;;;16.90;100.00;95747.47;5012241;28;20287;-87
2021/05/05 08:39:10;;;;;;;3.00;2.30;;;;;;;17.10;100.00;95741.06;5012485;28;20198;-87
2021/05/05 08:41:39;;;;;;;3.90;2.13;;;;;;;17.20;100.00;95775.13;5012552;28;20201;-87
2021/05/05 08:44:09;;;;;;;3.60;2.50;;;;;;;17.16;100.00;95792.50;5012589;28;20203;-86
2021/05/05 08:46:37;;;;;;;5.70;1.80;;;;;;;16.85;100.00;95825.91;5012328;28;20195;-86
2021/05/05 08:49:06;;;;;;;2.30;1.87;;;;;;;16.90;100.00;95843.03;5012826;28;20253;-86
2021/05/05 08:51:34;;;;;;;3.63;2.27;;;;;;;17.05;100.00;95844.44;5012415;28;20663;-87
2021/05/05 08:54:01;;;;;;;6.23;2.30;;;;;;;16.97;100.00;95873.03;5012437;28;20375;-86
2021/05/05 08:56:34;;;;;;;4.50;1.67;;;;;;;16.88;100.00;95881.22;5012517;28;20697;-86
2021/05/05 08:59:01;;;;;;;6.07;2.50;;;;;;;16.65;100.00;95888.78;5012575;28;20259;-87
2021/05/05 09:01:29;;;;;;;2.63;2.03;;;;;;;16.71;100.00;95872.03;5012676;28;20658;-86
2021/05/05 09:03:55;;;;;;;2.10;1.90;;;;;;;16.83;100.00;95885.53;5012729;28;20696;-87
2021/05/05 09:06:45;;;;;;;2.47;2.13;;;;;;;16.76;100.00;95896.13;5012342;28;20238;-86
2021/05/05 09:09:12;;;;;;;2.30;2.10;;;;;;;16.81;100.00;95876.97;5012342;28;20243;-87
2021/05/05 09:11:45;;;;;;;4.30;2.50;;;;;;;16.91;100.00;95873.88;5012216;28;20345;-87
2021/05/05 09:14:12;;;;;;;3.77;1.70;;;;;;;16.75;100.00;95873.28;5012547;28;20666;-87
2021/05/05 09:16:39;;;;;;;4.03;2.77;;;;;;;17.04;100.00;95861.41;5012287;28;20232;-87
2021/05/05 09:19:09;;;;;;;2.10;1.90;;;;;;;17.76;100.00;95846.16;5012302;28;20753;-87
2021/05/05 09:21:37;;;;;;;1.80;1.70;;;;;;;17.92;100.00;95879.41;5012254;28;20209;-87
2021/05/05 09:24:23;;;;;;;3.57;2.00;;;;;;;17.80;100.00;95887.28;5012395;28;20267;-87
2021/05/05 09:26:51;;;;;;;3.47;2.20;;;;;;;18.17;100.00;95863.50;5011914;28;20398;-87
2021/05/05 09:29:20;;;;;;;2.20;2.00;;;;;;;18.49;100.00;95831.50;5012300;28;20298;-86
2021/05/05 09:31:47;;;;;;;3.47;2.63;;;;;;;18.24;100.00;95858.13;5011954;28;20231;-86
2021/05/05 09:34:14;;;;;;;4.90;3.23;;;;;;;18.30;100.00;95826.16;5012117;28;20314;-87
2021/05/05 09:36:42;;;;;;;4.37;2.67;;;;;;;18.15;100.00;95844.28;5011707;28;20235;-86
2021/05/05 09:39:10;;;;;;;3.13;2.40;;;;;;;18.04;100.00;95851.09;5012081;28;20198;-87
2021/05/05 09:41:45;;;;;;;9.37;2.30;;;;;;;17.83;100.00;95862.88;5012313;28;20200;-87
2021/05/05 09:44:12;;;;;;;2.57;1.70;;;;;;;17.82;100.00;95849.81;5012431;28;20222;-87
2021/05/05 09:46:44;;;;;;;5.93;2.50;;;;;;;18.03;100.00;95851.31;5011698;28;20231;-87
2021/05/05 09:49:21;;;;;;;4.10;1.97;;;;;;;18.49;100.00;95853.59;5013323;28;20234;-87
2021/05/05 09:51:51;;;;;;;2.57;2.30;;;;;;;18.13;100.00;95870.28;5015796;28;20215;-87
2021/05/05 09:54:32;;;;;;;3.30;2.67;;;;;;;18.06;100.00;95858.88;5015912;28;20312;-86
2021/05/05 09:57:24;;;;;;;5.90;2.30;;;;;;;18.21;100.00;95843.41;5015124;28;20187;-83
2021/05/05 10:00:10;;;;;;;3.53;2.20;;;;;;;18.22;100.00;95845.06;5001540;28;20281;-87
2021/05/05 10:02:45;;;;;;;3.20;2.30;;;;;;;18.43;100.00;95833.22;5015434;28;20194;-86
2021/05/05 10:05:13;;;;;;;3.03;2.40;;;;;;;18.97;100.00;95828.19;5015300;28;20202;-87
2021/05/05 10:07:55;;;;;;;2.30;2.10;;;;;;;19.70;100.00;95840.66;5015162;28;20206;-87
2021/05/05 10:10:24;;;;;;;3.37;2.43;;;;;;;19.87;100.00;95840.81;5015317;28;20202;-87
2021/05/05 10:12:53;;;;;;;7.20;3.30;;;;;;;19.77;100.00;95840.56;5015127;28;20219;-86
2021/05/05 10:15:20;;;;;;;3.53;2.80;;;;;;;19.87;100.00;95803.50;5015381;28;20269;-87
2021/05/05 10:17:50;;;;;;;7.17;3.57;;;;;;;20.12;100.00;95793.44;5015290;28;20249;-87
2021/05/05 10:20:19;;;;;;;2.73;2.23;;;;;;;20.01;100.00;95831.59;5015186;28;20191;-87
2021/05/05 10:22:46;;;;;;;3.87;2.53;;;;;;;19.95;100.00;95840.50;5015124;28;20250;-86
2021/05/05 10:25:17;;;;;;;4.60;2.40;;;;;;;20.84;100.00;95835.16;5014964;28;20231;-86
2021/05/05 10:27:45;;;;;;;4.93;2.40;;;;;;;21.17;100.00;95841.75;5014821;28;20203;-87
2021/05/05 10:30:16;;;;;;;5.03;2.60;;;;;;;21.00;100.00;95841.66;5015376;28;20567;-86
2021/05/05 10:32:45;;;;;;;4.07;2.40;;;;;;;21.31;100.00;95840.44;5014795;28;20215;-87
2021/05/05 10:35:15;;;;;;;2.37;2.17;;;;;;;20.95;100.00;95855.72;5014862;28;20203;-87
2021/05/05 10:37:47;;;;;;;14.50;3.07;;;;;;;21.05;100.00;95842.56;5014402;28;20289;-87
2021/05/05 10:40:17;;;;;;;4.33;2.50;;;;;;;20.27;100.00;95854.38;5015118;28;20200;-87
2021/05/05 10:42:56;;;;;;;2.70;2.50;;;;;;;19.91;100.00;95837.47;5014592;28;20199;-87
2021/05/05 10:45:32;;;;;;;12.03;2.30;;;;;;;20.14;100.00;95842.06;5014866;28;20223;-87
2021/05/05 10:48:11;;;;;;;3.37;2.63;;;;;;;20.25;100.00;95847.66;5014470;28;20212;-87
2021/05/05 10:50:57;;;;;;;9.70;3.27;;;;;;;20.18;100.00;95800.53;5014913;28;20187;-87
2021/05/05 10:53:26;;;;;;;6.60;3.37;;;;;;;20.60;100.00;95802.31;5014541;28;20301;-87
2021/05/05 10:55:56;;;;;;;5.03;3.67;;;;;;;21.32;100.00;95777.91;5014111;28;20226;-85
2021/05/05 10:58:25;;;;;;;2.80;2.60;;;;;;;21.48;100.00;95798.59;5014508;28;20200;-87
2021/05/05 11:01:14;;;;;;;4.07;3.37;;;;;;;21.72;100.00;95806.50;5013908;28;20694;-87
2021/05/05 11:04:02;;;;;;;6.90;3.63;;;;;;;21.32;100.00;95824.16;5014611;28;20214;-87
2021/05/05 11:06:50;;;;;;;9.03;4.07;;;;;;;21.53;100.00;95809.34;5014217;28;20196;-87
2021/05/05 11:09:54;;;;;;;10.43;4.30;;;;;;;21.24;100.00;95810.38;5014355;28;20230;-87
2021/05/05 11:12:45;;;;;;;3.90;3.43;;;;;;;20.46;100.00;95823.06;5013870;28;20234;-86
2021/05/05 11:15:13;;;;;;;3.00;2.70;;;;;;;20.18;100.00;95813.88;5014163;28;20191;-87
2021/05/05 11:17:41;;;;;;;4.63;3.13;;;;;;;20.01;100.00;95815.59;5013926;28;20218;-87
2021/05/05 11:20:09;;;;;;;5.57;2.83;;;;;;;20.13;100.00;95810.28;5014128;28;20295;-87
2021/05/05 11:22:49;;;;;;;7.27;2.70;;;;;;;20.16;100.00;95812.50;5013864;28;20203;-87
2021/05/05 11:25:33;;;;;;;4.47;4.07;;;;;;;20.26;100.00;95802.03;5014043;28;20655;-87
2021/05/05 11:28:00;;;;;;;5.77;3.43;;;;;;;21.05;100.00;95801.69;5014045;28;20231;-87
2021/05/05 11:30:38;;;;;;;3.37;3.07;;;;;;;21.50;100.00;95791.13;5014062;28;20246;-87
2021/05/05 11:33:07;;;;;;;2.67;2.20;;;;;;;21.87;100.00;95804.09;5013631;28;20211;-86
2021/05/05 11:35:34;;;;;;;2.60;2.30;;;;;;;22.23;100.00;95807.41;5013743;28;20290;-86
2021/05/05 11:38:06;;;;;;;5.40;3.70;;;;;;;21.81;100.00;95794.34;5013486;28;20204;-87